Selma, Louisiana
Current Conditions -  °F | °C
As of 5:04 AM on Friday 19 Dec 2014 (Local Time) from KESF Reporting Station
Light Rain Light Rain  
Wind Chill: 51°   Ceiling: 500
Heat Index: 51°   Visibility: 10mi
Dew Point: 49°   Wind: 3mph
Humidity: 92%   Direction: NA
Pressure: 30.11"   Gusts: NA
Location:  31.7323°N, 92.4245°W
Report Text: KESF 191104Z AUTO VRB03KT 10SM -RA OVC005 11/09 A3011 RMK AO2 CIG 002V007 P0000 T01060094
Loading
Personal Weather Stations






























Interactive Weather Map New forecast layout! Learn more

10-Day Weather Forecast

Advertisements
Track Severe Weather on mobile